Latest Weather Observations for Delamere

IDD60801

Issued at 6:01 pm CST Monday 3 August 2015 (issued every 30 minutes, with the page automatically refreshed every 10 minutes)

About weather observations | Map of weather stations | Latest weather observations for NT | Other Formats
Station Details ID: 014949 Name: DELAMERE WEAPONS RANGE Lat: -15.74 Lon: 131.92 Height: 221.0 m
Data from the previous 72 hours. | See also: Recent months at Delamere
Date/Time
CST
Temp
°C
App
Temp
°C
Dew
Point
Rel
Hum
%
Delta-T
°C
Wind Press
QNH
hPa
Press
MSL
hPa
Rain
since 9 am
mm
Dir
 
Spd
km/h
Gust
km/h
Spd
kts
Gust
kts
03/06:00pm 29.8 26.1 6.5 23 12.5 E 15 22 8 12 1015.4 1014.4 0.0
03/05:30pm 30.3 26.4 6.9 23 12.7 ESE 17 30 9 16 1015.2 - 0.0
03/05:00pm 31.1 27.3 7.5 23 13.0 ESE 17 26 9 14 1015.0 - 0.0
03/04:30pm 31.0 27.2 7.5 23 12.9 E 17 26 9 14 1014.8 - 0.0
03/04:00pm 31.1 26.3 7.5 23 13.0 E 22 30 12 16 1014.8 - 0.0
03/03:30pm 31.7 26.7 8.0 23 13.2 SE 24 33 13 18 1015.0 - 0.0
03/03:00pm 30.6 26.5 7.7 24 12.6 ESE 19 28 10 15 1015.3 1014.3 0.0
03/02:30pm 30.9 26.0 8.6 25 12.5 E 24 35 13 19 1015.7 - 0.0
03/02:00pm 30.6 26.2 8.9 26 12.2 ESE 22 28 12 15 1016.0 - 0.0
03/01:30pm 30.6 27.3 9.5 27 12.0 ENE 17 30 9 16 1016.4 - 0.0
03/01:00pm 29.7 26.1 9.8 29 11.3 ESE 19 32 10 17 1017.0 - 0.0
03/12:30pm 29.7 27.0 10.3 30 11.1 E 15 32 8 17 1017.4 - 0.0
03/12:00pm 29.0 26.0 10.6 32 10.5 E 17 32 9 17 1017.9 1017.0 0.0
03/11:30am 28.7 25.6 10.4 32 10.4 E 17 24 9 13 1018.3 - 0.0
03/11:00am 27.5 24.1 10.7 35 9.6 E 19 24 10 13 1018.5 - 0.0
03/10:30am 26.1 22.7 10.7 38 8.7 NE 19 26 10 14 1018.4 - 0.0
03/10:00am 25.4 23.1 11.9 43 7.8 ENE 15 22 8 12 1018.4 - 0.0
03/09:30am 24.0 21.7 11.7 46 7.0 NE 15 20 8 11 1018.2 - 0.0
03/09:00am 22.2 20.1 11.3 50 6.1 E 13 19 7 10 1018.1 1017.2 0.0
03/08:30am 19.7 17.9 10.7 56 4.9 ENE 11 13 6 7 1017.7 - 0.0
03/08:00am 18.1 16.4 10.0 59 4.3 ENE 9 13 5 7 1017.6 - 0.0
03/07:30am 17.3 15.2 9.7 61 4.0 E 11 15 6 8 1017.3 - 0.0
03/07:00am 17.6 15.1 9.8 60 4.2 E 13 19 7 10 1017.0 - 0.0
03/06:30am 16.9 15.1 9.6 62 3.9 ESE 9 13 5 7 1016.6 - 0.0
03/06:00am 16.8 14.9 9.0 60 4.1 ESE 9 13 5 7 1016.2 1015.2 0.0
03/05:30am 15.9 14.3 7.9 59 4.1 E 6 7 3 4 1016.0 - 0.0
03/05:00am 16.8 16.3 8.0 56 4.5 CALM 0 4 0 2 1015.9 - 0.0
03/04:30am 17.4 15.7 8.3 55 4.7 SE 7 9 4 5 1016.1 - 0.0
03/04:00am 18.1 15.6 8.4 53 5.0 SE 11 13 6 7 1016.4 - 0.0
03/03:30am 17.1 15.3 8.0 55 4.7 E 7 7 4 4 1016.2 - 0.0
03/03:00am 17.1 15.3 8.0 55 4.7 NE 7 9 4 5 1016.2 1015.2 0.0
03/02:30am 17.0 15.8 7.9 55 4.7 NE 4 11 2 6 1016.4 - 0.0
03/02:00am 17.6 17.0 7.6 52 5.1 CALM 0 0 0 0 1016.3 - 0.0
03/01:30am 17.6 17.1 7.9 53 5.0 CALM 0 0 0 0 1016.5 - 0.0
03/01:00am 17.8 17.2 7.5 51 5.3 CALM 0 0 0 0 1016.7 - 0.0
03/12:30am 18.2 17.7 7.9 51 5.3 CALM 0 0 0 0 1016.6 - 0.0
03/12:00am 18.4 17.9 7.8 50 5.5 CALM 0 0 0 0 1016.6 1015.6 0.0
 
Date/Time
CST
Temp
°C
App
Temp
°C
Dew
Point
Rel
Hum
%
Delta-T
°C
Wind Press
QNH
hPa
Press
MSL
hPa
Rain
since 9 am
mm
Dir
 
Spd
km/h
Gust
km/h
Spd
kts
Gust
kts
02/11:30pm 19.9 19.3 7.6 45 6.4 CALM 0 4 0 2 1016.7 - 0.0
02/11:00pm 20.6 19.0 7.9 44 6.6 NE 6 7 3 4 1016.7 - 0.0
02/10:30pm 21.2 19.4 7.8 42 7.0 NNE 7 7 4 4 1016.7 - 0.0
02/10:00pm 22.0 20.6 7.4 39 7.6 NNE 4 6 2 3 1016.6 - 0.0
02/09:30pm 22.6 20.8 7.2 37 8.1 NNE 6 7 3 4 1016.6 - 0.0
02/09:00pm 23.5 21.7 7.2 35 8.6 NE 6 7 3 4 1016.4 1015.4 0.0
02/08:30pm 24.4 22.5 7.5 34 9.0 NE 7 9 4 5 1016.2 - 0.0
02/08:00pm 25.2 23.4 7.8 33 9.3 ENE 7 9 4 5 1015.9 - 0.0
02/07:30pm 25.9 24.0 7.5 31 9.9 ENE 7 9 4 5 1015.4 - 0.0
02/07:00pm 27.5 25.7 7.9 29 10.7 E 7 7 4 4 1015.0 - 0.0
02/06:30pm 28.9 26.6 7.5 26 11.7 ENE 9 11 5 6 1014.6 - 0.0
02/06:00pm 30.3 27.3 7.5 24 12.5 E 13 20 7 11 1014.4 1013.4 0.0
02/05:30pm 30.9 27.4 7.4 23 12.9 E 15 20 8 11 1014.1 - 0.0
02/05:00pm 31.4 28.9 8.4 24 12.9 ESE 11 19 6 10 1014.0 - 0.0
02/04:30pm 31.6 27.5 7.9 23 13.2 E 19 24 10 13 1014.0 - 0.0
02/04:00pm 31.0 27.6 7.5 23 12.9 ENE 15 24 8 13 1014.1 - 0.0
02/03:30pm 31.9 28.6 8.2 23 13.3 E 15 26 8 14 1014.4 - 0.0
02/03:00pm 31.5 27.6 8.5 24 12.9 SSE 19 24 10 13 1014.8 1013.8 0.0
02/02:30pm 31.7 28.0 8.0 23 13.2 E 17 28 9 15 1015.2 - 0.0
02/02:00pm 30.7 27.9 8.4 25 12.4 SE 13 39 7 21 1015.6 - 0.0
02/01:30pm 30.3 26.3 9.2 27 11.9 E 20 33 11 18 1015.9 - 0.0
02/01:00pm 29.8 26.3 8.8 27 11.7 ESE 17 26 9 14 1016.3 - 0.0
02/12:30pm 29.2 26.0 9.8 30 11.0 ESE 17 28 9 15 1016.9 - 0.0
02/12:00pm 29.0 26.1 11.1 33 10.3 ENE 17 22 9 12 1017.5 1016.6 0.0
02/11:30am 27.2 23.7 10.8 36 9.4 NE 20 30 11 16 1018.0 - 0.0
02/11:00am 26.8 23.7 11.7 39 8.7 NE 19 24 10 13 1018.3 - 0.0
02/10:30am 25.4 22.2 11.9 43 7.8 NE 20 26 11 14 1018.6 - 0.0
02/10:00am 24.9 22.6 13.1 48 6.9 NE 17 22 9 12 1018.7 - 0.0
02/09:30am 22.7 20.6 13.5 56 5.4 NE 17 22 9 12 1018.6 - 0.0
02/09:00am 20.7 19.1 12.7 60 4.6 ENE 13 19 7 10 1018.2 1017.3 0.0
02/08:30am 18.8 16.9 10.6 59 4.5 E 11 15 6 8 1017.9 - 0.0
02/08:00am 17.2 15.9 10.1 63 3.8 E 7 9 4 5 1017.7 - 0.0
02/07:30am 15.1 13.7 9.0 67 3.2 E 6 7 3 4 1017.3 - 0.0
02/07:00am 15.1 13.7 9.5 69 2.9 E 7 11 4 6 1016.9 - 0.0
02/06:30am 15.3 13.6 9.7 69 2.9 ESE 9 11 5 6 1016.6 - 0.0
02/06:00am 15.4 13.9 9.1 66 3.3 E 7 9 4 5 1016.4 1015.4 0.0
02/05:30am 15.9 14.4 9.3 65 3.4 E 7 9 4 5 1016.1 - 0.0
02/05:00am 16.1 14.3 9.3 64 3.6 E 9 11 5 6 1016.0 - 0.0
02/04:30am 15.9 14.3 8.6 62 3.8 E 7 9 4 5 1016.0 - 0.0
02/04:00am 16.8 14.8 8.8 59 4.2 E 9 11 5 6 1015.8 - 0.0
02/03:30am 17.7 15.9 9.3 58 4.4 E 9 13 5 7 1015.9 - 0.0
02/03:00am 17.7 16.1 8.8 56 4.7 E 7 9 4 5 1015.9 1014.9 0.0
02/02:30am 17.1 15.1 8.5 57 4.5 ESE 9 11 5 6 1015.8 - 0.0
02/02:00am 16.7 16.1 7.4 54 4.7 CALM 0 0 0 0 1015.8 - 0.0
02/01:30am 16.8 16.2 7.4 54 4.8 CALM 0 0 0 0 1015.8 - 0.0
02/01:00am 17.2 16.7 7.8 54 4.8 CALM 0 0 0 0 1015.8 - 0.0
02/12:30am 17.8 17.4 8.1 53 5.0 CALM 0 0 0 0 1015.8 - 0.0
02/12:00am 18.4 17.9 7.8 50 5.5 CALM 0 0 0 0 1015.9 1014.9 0.0
 
Date/Time
CST
Temp
°C
App
Temp
°C
Dew
Point
Rel
Hum
%
Delta-T
°C
Wind Press
QNH
hPa
Press
MSL
hPa
Rain
since 9 am
mm
Dir
 
Spd
km/h
Gust
km/h
Spd
kts
Gust
kts
01/11:30pm 19.7 19.1 7.4 45 6.3 CALM 0 0 0 0 1015.9 - 0.0
01/11:00pm 20.4 18.9 6.7 41 7.0 ENE 4 6 2 3 1016.0 - 0.0
01/10:30pm 21.1 19.3 7.0 40 7.3 ENE 6 7 3 4 1016.0 - 0.0
01/10:00pm 21.5 19.6 6.6 38 7.7 ENE 6 7 3 4 1015.8 - 0.0
01/09:30pm 22.3 20.3 7.3 38 7.8 ENE 7 9 4 5 1015.7 - 0.0
01/09:00pm 22.5 20.3 6.3 35 8.3 ENE 7 9 4 5 1015.4 1014.4 0.0
01/08:30pm 23.4 21.3 6.7 34 8.7 ENE 7 7 4 4 1015.1 - 0.0
01/08:00pm 24.2 22.3 6.5 32 9.2 ENE 6 7 3 4 1014.8 - 0.0
01/07:30pm 24.9 23.7 6.6 31 9.6 ENE 2 9 1 5 1014.4 - 0.0
01/07:00pm 26.6 24.7 6.6 28 10.6 E 6 7 3 4 1014.0 - 0.0
01/06:30pm 28.6 26.7 6.7 25 11.7 E 6 7 3 4 1013.8 - 0.0
01/06:00pm 30.1 27.2 6.7 23 12.7 E 11 17 6 9 1013.7 1012.8 0.0
01/05:30pm 30.7 28.1 5.9 21 13.3 E 9 15 5 8 1013.5 - 0.0
01/05:00pm 31.1 28.0 5.5 20 13.6 ESE 11 17 6 9 1013.4 - 0.0
01/04:30pm 31.1 27.5 4.8 19 13.9 E 13 20 7 11 1013.4 - 0.0
01/04:00pm 31.1 28.4 5.5 20 13.6 E 9 19 5 10 1013.4 - 0.0
01/03:30pm 31.4 28.4 5.8 20 13.7 ENE 11 20 6 11 1013.6 - 0.0
01/03:00pm 31.0 26.9 6.1 21 13.4 E 17 22 9 12 1014.0 1013.1 0.0
01/02:30pm 30.5 26.8 6.4 22 13.0 ESE 15 28 8 15 1014.5 - 0.0
01/02:00pm 31.1 28.3 6.9 22 13.2 ESE 11 20 6 11 1014.9 - 0.0
01/01:30pm 29.6 26.7 6.3 23 12.5 E 11 22 6 12 1015.4 - 0.0
01/01:00pm 29.3 25.7 6.7 24 12.2 ESE 15 20 8 11 1016.0 - 0.0
01/12:30pm 29.2 25.4 7.7 26 11.8 NE 17 26 9 14 1016.6 - 0.0
01/12:00pm 28.4 24.4 8.1 28 11.1 E 19 28 10 15 1017.1 1016.2 0.0
01/11:30am 27.8 23.9 9.6 32 10.2 ENE 20 32 11 17 1017.5 - 0.0
01/11:00am 27.0 23.3 10.2 35 9.5 E 20 32 11 17 1017.7 - 0.0
01/10:30am 25.9 21.9 10.5 38 8.7 NE 22 32 12 17 1018.0 - 0.0
01/10:00am 24.3 21.4 12.3 47 6.9 NE 19 26 10 14 1018.2 - 0.0
01/09:30am 22.8 20.4 13.8 57 5.3 NE 19 24 10 13 1018.1 - 0.0
01/09:00am 20.3 17.9 12.5 61 4.4 ENE 17 22 9 12 1017.8 1016.9 0.0
01/08:30am 18.3 15.9 10.2 59 4.4 ENE 13 20 7 11 1017.5 - 0.0
01/08:00am 16.9 14.9 8.8 59 4.2 ENE 9 11 5 6 1017.2 - 0.0
01/07:30am 16.1 14.1 8.8 62 3.8 E 9 11 5 6 1016.8 - 0.0
01/07:00am 16.1 13.3 8.6 61 3.9 E 13 15 7 8 1016.5 - 0.0
01/06:30am 16.1 13.9 9.3 64 3.6 E 11 15 6 8 1016.3 - 0.0
01/06:00am 15.9 14.1 9.6 66 3.3 ESE 9 11 5 6 1015.8 1014.8 0.0
01/05:30am 15.2 13.8 9.6 69 2.9 E 7 9 4 5 1015.5 - 0.0
01/05:00am 15.4 14.1 9.1 66 3.3 ENE 6 9 3 5 1015.3 - 0.0
01/04:30am 15.8 14.3 9.0 64 3.5 E 7 9 4 5 1015.2 - 0.0
01/04:00am 16.4 15.1 9.8 65 3.5 E 7 9 4 5 1015.1 - 0.0
01/03:30am 17.0 15.8 9.4 61 4.0 E 6 7 3 4 1015.1 - 0.0
01/03:00am 18.0 16.7 10.1 60 4.2 ENE 7 9 4 5 1015.1 1014.1 0.0
01/02:30am 18.6 17.4 10.2 58 4.5 ENE 7 9 4 5 1015.3 - 0.0
01/02:00am 19.1 17.6 10.6 58 4.6 E 9 13 5 7 1015.4 - 0.0
01/01:30am 19.8 18.0 11.0 57 4.9 E 11 15 6 8 1015.4 - 0.0
01/01:00am 18.4 18.5 10.0 58 4.5 CALM 0 0 0 0 1015.1 - 0.0
01/12:30am 19.6 19.7 10.0 54 5.2 CALM 0 0 0 0 1015.1 - 0.0
01/12:00am 21.1 20.3 10.9 52 5.7 SE 6 7 3 4 1015.3 1014.3 0.0
 
Date/Time
CST
Temp
°C
App
Temp
°C
Dew
Point
Rel
Hum
%
Delta-T
°C
Wind Press
QNH
hPa
Press
MSL
hPa
Rain
since 9 am
mm
Dir
 
Spd
km/h
Gust
km/h
Spd
kts
Gust
kts
31/11:30pm 20.5 19.6 11.2 55 5.2 SSE 7 9 4 5 1015.4 - 0.0
31/11:00pm 20.7 20.7 11.1 54 5.3 E 2 15 1 8 1015.5 - 0.0
31/10:30pm 21.1 21.2 10.3 50 5.9 CALM 0 0 0 0 1015.4 - 0.0
31/10:00pm 21.7 22.0 10.8 50 6.1 CALM 0 0 0 0 1015.3 - 0.0
31/09:30pm 22.2 22.4 10.4 47 6.5 CALM 0 0 0 0 1015.3 - 0.0
31/09:00pm 22.6 22.9 11.0 48 6.5 CALM 0 0 0 0 1015.2 1014.5 0.0
31/08:30pm 23.4 23.8 11.1 46 6.9 CALM 0 0 0 0 1014.9 - 0.0
31/08:00pm 24.4 24.7 11.0 43 7.6 CALM 0 0 0 0 1014.5 - 0.0
31/07:30pm 25.3 25.1 10.4 39 8.4 ENE 2 6 1 3 1014.1 - 0.0
31/07:00pm 26.9 25.9 11.0 37 9.1 E 7 7 4 4 1013.8 - 0.0
31/06:30pm 27.9 26.9 11.0 35 9.7 E 7 11 4 6 1013.6 - 0.0

Other Formats:

Comma delimited format used in spreadsheet applications
http://www.bom.gov.au/fwo/IDD60801/IDD60801.94225.axf

JavaScript Object Notation format (JSON) in row-major order
http://www.bom.gov.au/fwo/IDD60801/IDD60801.94225.json